sensor_id;sensor_type;location;lat;lon;timestamp;pressure;altitude;pressure_sealevel;temperature;humidity
19457;BME280;9867;48.094;11.478;2023-06-10T00:00:16;94811.84;;;17.12;100.00
19457;BME280;9867;48.094;11.478;2023-06-10T00:02:43;94805.97;;;17.22;100.00
19457;BME280;9867;48.094;11.478;2023-06-10T00:05:11;94806.00;;;17.27;100.00
19457;BME280;9867;48.094;11.478;2023-06-10T00:07:39;94801.41;;;16.80;100.00
19457;BME280;9867;48.094;11.478;2023-06-10T00:10:09;94816.38;;;16.56;100.00
19457;BME280;9867;48.094;11.478;2023-06-10T00:12:37;94804.91;;;16.47;100.00
19457;BME280;9867;48.094;11.478;2023-06-10T00:15:07;94803.81;;;16.43;100.00
19457;BME280;9867;48.094;11.478;2023-06-10T00:17:36;94804.94;;;16.30;100.00
19457;BME280;9867;48.094;11.478;2023-06-10T00:20:07;94795.75;;;16.01;100.00
19457;BME280;9867;48.094;11.478;2023-06-10T00:22:37;94797.38;;;16.07;100.00
19457;BME280;9867;48.094;11.478;2023-06-10T00:25:06;94812.56;;;16.20;100.00
19457;BME280;9867;48.094;11.478;2023-06-10T00:27:37;94803.88;;;16.48;100.00
19457;BME280;9867;48.094;11.478;2023-06-10T00:30:06;94805.69;;;16.48;100.00
19457;BME280;9867;48.094;11.478;2023-06-10T00:32:35;94810.22;;;16.19;100.00
19457;BME280;9867;48.094;11.478;2023-06-10T00:35:04;94815.75;;;16.06;100.00
19457;BME280;9867;48.094;11.478;2023-06-10T00:37:33;94810.66;;;15.94;100.00
19457;BME280;9867;48.094;11.478;2023-06-10T00:40:02;94805.50;;;15.77;100.00
19457;BME280;9867;48.094;11.478;2023-06-10T00:42:31;94814.09;;;15.83;100.00
19457;BME280;9867;48.094;11.478;2023-06-10T00:45:01;94802.03;;;16.05;100.00
19457;BME280;9867;48.094;11.478;2023-06-10T00:47:29;94806.63;;;16.20;100.00
19457;BME280;9867;48.094;11.478;2023-06-10T00:49:57;94809.38;;;16.13;100.00
19457;BME280;9867;48.094;11.478;2023-06-10T00:52:27;94822.03;;;16.31;100.00
19457;BME280;9867;48.094;11.478;2023-06-10T00:54:56;94813.84;;;16.40;100.00
19457;BME280;9867;48.094;11.478;2023-06-10T00:57:25;94813.13;;;16.44;100.00
19457;BME280;9867;48.094;11.478;2023-06-10T00:59:53;94811.34;;;16.45;100.00
19457;BME280;9867;48.094;11.478;2023-06-10T01:02:23;94818.69;;;16.53;100.00
19457;BME280;9867;48.094;11.478;2023-06-10T01:04:51;94812.63;;;16.64;100.00
19457;BME280;9867;48.094;11.478;2023-06-10T01:07:23;94813.22;;;16.71;100.00
19457;BME280;9867;48.094;11.478;2023-06-10T01:09:59;94819.00;;;16.78;100.00
19457;BME280;9867;48.094;11.478;2023-06-10T01:12:34;94817.63;;;16.70;100.00
19457;BME280;9867;48.094;11.478;2023-06-10T01:15:06;94824.06;;;16.68;100.00
19457;BME280;9867;48.094;11.478;2023-06-10T01:17:54;94824.44;;;16.38;100.00
19457;BME280;9867;48.094;11.478;2023-06-10T01:20:22;94816.03;;;16.26;100.00
19457;BME280;9867;48.094;11.478;2023-06-10T01:22:52;94813.66;;;16.24;100.00
19457;BME280;9867;48.094;11.478;2023-06-10T01:25:21;94818.31;;;16.22;100.00
19457;BME280;9867;48.094;11.478;2023-06-10T01:28:02;94823.44;;;16.00;100.00
19457;BME280;9867;48.094;11.478;2023-06-10T01:30:34;94834.22;;;16.14;100.00
19457;BME280;9867;48.094;11.478;2023-06-10T01:33:07;94828.78;;;15.94;100.00
19457;BME280;9867;48.094;11.478;2023-06-10T01:35:38;94830.13;;;15.80;100.00
19457;BME280;9867;48.094;11.478;2023-06-10T01:38:10;94829.88;;;15.81;100.00
19457;BME280;9867;48.094;11.478;2023-06-10T01:40:40;94821.81;;;15.78;100.00
19457;BME280;9867;48.094;11.478;2023-06-10T01:43:08;94819.47;;;15.76;100.00
19457;BME280;9867;48.094;11.478;2023-06-10T01:45:36;94826.53;;;15.81;100.00
19457;BME280;9867;48.094;11.478;2023-06-10T01:48:04;94827.59;;;15.85;100.00
19457;BME280;9867;48.094;11.478;2023-06-10T01:50:32;94826.34;;;15.71;100.00
19457;BME280;9867;48.094;11.478;2023-06-10T01:53:00;94837.06;;;15.62;100.00
19457;BME280;9867;48.094;11.478;2023-06-10T01:55:30;94830.94;;;15.52;100.00
19457;BME280;9867;48.094;11.478;2023-06-10T01:57:57;94826.72;;;15.46;100.00
19457;BME280;9867;48.094;11.478;2023-06-10T02:00:25;94838.94;;;15.33;100.00
19457;BME280;9867;48.094;11.478;2023-06-10T02:02:53;94835.47;;;15.28;100.00
19457;BME280;9867;48.094;11.478;2023-06-10T02:05:21;94829.66;;;15.21;100.00
19457;BME280;9867;48.094;11.478;2023-06-10T02:07:49;94827.94;;;15.26;100.00
19457;BME280;9867;48.094;11.478;2023-06-10T02:10:17;94840.19;;;15.31;100.00
19457;BME280;9867;48.094;11.478;2023-06-10T02:12:47;94828.22;;;15.13;100.00
19457;BME280;9867;48.094;11.478;2023-06-10T02:15:14;94834.78;;;15.04;100.00
19457;BME280;9867;48.094;11.478;2023-06-10T02:17:44;94832.63;;;14.84;100.00
19457;BME280;9867;48.094;11.478;2023-06-10T02:20:12;94830.38;;;14.88;100.00
19457;BME280;9867;48.094;11.478;2023-06-10T02:22:41;94831.66;;;15.02;100.00
19457;BME280;9867;48.094;11.478;2023-06-10T02:25:09;94828.84;;;15.04;100.00
19457;BME280;9867;48.094;11.478;2023-06-10T02:27:37;94827.25;;;15.02;100.00
19457;BME280;9867;48.094;11.478;2023-06-10T02:30:09;94824.47;;;15.04;100.00
19457;BME280;9867;48.094;11.478;2023-06-10T02:32:37;94826.91;;;15.11;100.00
19457;BME280;9867;48.094;11.478;2023-06-10T02:35:06;94826.94;;;15.27;100.00
19457;BME280;9867;48.094;11.478;2023-06-10T02:37:34;94827.72;;;15.28;100.00
19457;BME280;9867;48.094;11.478;2023-06-10T02:40:04;94826.97;;;15.16;100.00
19457;BME280;9867;48.094;11.478;2023-06-10T02:42:32;94826.50;;;15.19;100.00
19457;BME280;9867;48.094;11.478;2023-06-10T02:45:01;94833.94;;;15.15;100.00
19457;BME280;9867;48.094;11.478;2023-06-10T02:47:38;94835.66;;;15.10;100.00
19457;BME280;9867;48.094;11.478;2023-06-10T02:50:07;94838.50;;;14.96;100.00
19457;BME280;9867;48.094;11.478;2023-06-10T02:52:44;94839.25;;;14.80;100.00
19457;BME280;9867;48.094;11.478;2023-06-10T02:55:12;94834.44;;;14.72;100.00
19457;BME280;9867;48.094;11.478;2023-06-10T02:57:44;94834.41;;;14.84;100.00
19457;BME280;9867;48.094;11.478;2023-06-10T03:00:13;94836.72;;;14.97;100.00
19457;BME280;9867;48.094;11.478;2023-06-10T03:02:44;94822.41;;;14.78;100.00
19457;BME280;9867;48.094;11.478;2023-06-10T03:05:13;94832.53;;;14.67;100.00
19457;BME280;9867;48.094;11.478;2023-06-10T03:07:45;94833.56;;;14.66;100.00
19457;BME280;9867;48.094;11.478;2023-06-10T03:10:15;94841.97;;;14.74;100.00
19457;BME280;9867;48.094;11.478;2023-06-10T03:12:43;94834.56;;;14.65;100.00
19457;BME280;9867;48.094;11.478;2023-06-10T03:15:12;94841.44;;;14.60;100.00
19457;BME280;9867;48.094;11.478;2023-06-10T03:17:40;94843.53;;;14.75;100.00
19457;BME280;9867;48.094;11.478;2023-06-10T03:20:12;94845.75;;;14.83;100.00
19457;BME280;9867;48.094;11.478;2023-06-10T03:22:43;94851.03;;;14.88;100.00
19457;BME280;9867;48.094;11.478;2023-06-10T03:25:12;94851.34;;;14.91;100.00
19457;BME280;9867;48.094;11.478;2023-06-10T03:27:43;94848.38;;;14.71;100.00
19457;BME280;9867;48.094;11.478;2023-06-10T03:30:13;94851.91;;;14.30;100.00
19457;BME280;9867;48.094;11.478;2023-06-10T03:32:42;94855.41;;;14.12;100.00
19457;BME280;9867;48.094;11.478;2023-06-10T03:35:15;94852.69;;;14.07;100.00
19457;BME280;9867;48.094;11.478;2023-06-10T03:37:44;94872.09;;;14.33;100.00
19457;BME280;9867;48.094;11.478;2023-06-10T03:40:12;94865.72;;;14.12;100.00
19457;BME280;9867;48.094;11.478;2023-06-10T03:42:44;94870.41;;;14.27;100.00
19457;BME280;9867;48.094;11.478;2023-06-10T03:45:14;94868.94;;;14.43;100.00
19457;BME280;9867;48.094;11.478;2023-06-10T03:47:44;94872.53;;;14.53;100.00
19457;BME280;9867;48.094;11.478;2023-06-10T03:50:18;94871.50;;;14.66;100.00
19457;BME280;9867;48.094;11.478;2023-06-10T03:52:46;94871.94;;;14.75;100.00
19457;BME280;9867;48.094;11.478;2023-06-10T03:55:17;94877.75;;;14.82;100.00
19457;BME280;9867;48.094;11.478;2023-06-10T03:57:49;94878.41;;;14.89;100.00
19457;BME280;9867;48.094;11.478;2023-06-10T04:00:18;94883.28;;;14.74;100.00
19457;BME280;9867;48.094;11.478;2023-06-10T04:02:48;94884.56;;;14.59;100.00
19457;BME280;9867;48.094;11.478;2023-06-10T04:05:28;94879.81;;;14.68;100.00
19457;BME280;9867;48.094;11.478;2023-06-10T04:07:57;94874.63;;;14.80;100.00
19457;BME280;9867;48.094;11.478;2023-06-10T04:10:26;94891.31;;;14.89;100.00
19457;BME280;9867;48.094;11.478;2023-06-10T04:12:54;94881.09;;;14.94;100.00
19457;BME280;9867;48.094;11.478;2023-06-10T04:15:25;94888.78;;;14.77;100.00
19457;BME280;9867;48.094;11.478;2023-06-10T04:17:53;94888.66;;;14.72;100.00
19457;BME280;9867;48.094;11.478;2023-06-10T04:20:23;94884.28;;;14.73;100.00
19457;BME280;9867;48.094;11.478;2023-06-10T04:22:53;94882.81;;;14.77;100.00
19457;BME280;9867;48.094;11.478;2023-06-10T04:25:21;94884.06;;;14.86;100.00
19457;BME280;9867;48.094;11.478;2023-06-10T04:27:49;94888.16;;;14.98;100.00
19457;BME280;9867;48.094;11.478;2023-06-10T04:30:17;94896.78;;;15.04;100.00
19457;BME280;9867;48.094;11.478;2023-06-10T04:32:45;94896.00;;;15.04;100.00
19457;BME280;9867;48.094;11.478;2023-06-10T04:35:15;94899.09;;;15.17;100.00
19457;BME280;9867;48.094;11.478;2023-06-10T04:37:45;94898.84;;;15.30;100.00
19457;BME280;9867;48.094;11.478;2023-06-10T04:40:14;94895.84;;;15.39;100.00
19457;BME280;9867;48.094;11.478;2023-06-10T04:42:43;94896.66;;;15.39;100.00
19457;BME280;9867;48.094;11.478;2023-06-10T04:45:12;94903.72;;;15.44;100.00
19457;BME280;9867;48.094;11.478;2023-06-10T04:47:40;94902.44;;;15.58;100.00
19457;BME280;9867;48.094;11.478;2023-06-10T04:50:10;94912.63;;;15.64;100.00
19457;BME280;9867;48.094;11.478;2023-06-10T04:52:37;94911.25;;;15.74;100.00
19457;BME280;9867;48.094;11.478;2023-06-10T04:55:08;94903.47;;;15.90;100.00
19457;BME280;9867;48.094;11.478;2023-06-10T04:57:38;94905.03;;;16.08;100.00
19457;BME280;9867;48.094;11.478;2023-06-10T05:00:07;94906.00;;;16.19;100.00
19457;BME280;9867;48.094;11.478;2023-06-10T05:02:35;94905.09;;;16.30;100.00
19457;BME280;9867;48.094;11.478;2023-06-10T05:05:03;94903.63;;;16.34;100.00
19457;BME280;9867;48.094;11.478;2023-06-10T05:07:31;94901.41;;;16.43;100.00
19457;BME280;9867;48.094;11.478;2023-06-10T05:09:59;94894.81;;;16.52;100.00
19457;BME280;9867;48.094;11.478;2023-06-10T05:12:28;94907.88;;;16.62;100.00
19457;BME280;9867;48.094;11.478;2023-06-10T05:14:57;94897.22;;;16.75;100.00
19457;BME280;9867;48.094;11.478;2023-06-10T05:17:25;94897.09;;;16.87;100.00
19457;BME280;9867;48.094;11.478;2023-06-10T05:19:53;94906.56;;;16.98;100.00
19457;BME280;9867;48.094;11.478;2023-06-10T05:22:22;94911.00;;;17.02;100.00
19457;BME280;9867;48.094;11.478;2023-06-10T05:24:51;94905.00;;;16.97;100.00
19457;BME280;9867;48.094;11.478;2023-06-10T05:27:19;94906.44;;;17.10;100.00
19457;BME280;9867;48.094;11.478;2023-06-10T05:29:47;94910.09;;;17.14;100.00
19457;BME280;9867;48.094;11.478;2023-06-10T05:32:17;94915.66;;;17.22;100.00
19457;BME280;9867;48.094;11.478;2023-06-10T05:34:45;94907.22;;;17.10;100.00
19457;BME280;9867;48.094;11.478;2023-06-10T05:37:13;94910.50;;;17.27;100.00
19457;BME280;9867;48.094;11.478;2023-06-10T05:39:41;94913.56;;;17.46;100.00
19457;BME280;9867;48.094;11.478;2023-06-10T05:42:09;94918.00;;;17.51;100.00
19457;BME280;9867;48.094;11.478;2023-06-10T05:44:37;94912.09;;;17.55;100.00
19457;BME280;9867;48.094;11.478;2023-06-10T05:47:05;94910.19;;;17.46;100.00
19457;BME280;9867;48.094;11.478;2023-06-10T05:49:34;94909.50;;;17.55;100.00
19457;BME280;9867;48.094;11.478;2023-06-10T05:52:02;94916.38;;;17.66;100.00
19457;BME280;9867;48.094;11.478;2023-06-10T05:54:30;94910.28;;;17.83;100.00
19457;BME280;9867;48.094;11.478;2023-06-10T05:56:58;94909.31;;;17.89;100.00
19457;BME280;9867;48.094;11.478;2023-06-10T05:59:26;94908.47;;;17.56;100.00
19457;BME280;9867;48.094;11.478;2023-06-10T06:01:54;94915.28;;;17.62;100.00
19457;BME280;9867;48.094;11.478;2023-06-10T06:04:21;94911.06;;;17.83;100.00
19457;BME280;9867;48.094;11.478;2023-06-10T06:06:51;94910.91;;;17.95;100.00
19457;BME280;9867;48.094;11.478;2023-06-10T06:09:19;94915.44;;;18.10;100.00
19457;BME280;9867;48.094;11.478;2023-06-10T06:11:47;94916.13;;;18.32;100.00
19457;BME280;9867;48.094;11.478;2023-06-10T06:14:14;94911.75;;;18.37;100.00
19457;BME280;9867;48.094;11.478;2023-06-10T06:16:42;94917.72;;;18.38;100.00
19457;BME280;9867;48.094;11.478;2023-06-10T06:19:10;94918.03;;;18.47;100.00
19457;BME280;9867;48.094;11.478;2023-06-10T06:21:38;94913.94;;;18.56;100.00
19457;BME280;9867;48.094;11.478;2023-06-10T06:24:07;94926.00;;;18.72;100.00
19457;BME280;9867;48.094;11.478;2023-06-10T06:26:35;94914.81;;;18.71;100.00
19457;BME280;9867;48.094;11.478;2023-06-10T06:29:03;94908.03;;;18.65;100.00
19457;BME280;9867;48.094;11.478;2023-06-10T06:31:31;94921.34;;;18.79;100.00
19457;BME280;9867;48.094;11.478;2023-06-10T06:33:59;94918.69;;;18.69;100.00
19457;BME280;9867;48.094;11.478;2023-06-10T06:36:27;94918.69;;;18.64;100.00
19457;BME280;9867;48.094;11.478;2023-06-10T06:38:55;94913.75;;;18.67;100.00
19457;BME280;9867;48.094;11.478;2023-06-10T06:41:26;94920.34;;;18.85;100.00
19457;BME280;9867;48.094;11.478;2023-06-10T06:43:54;94924.34;;;19.08;100.00
19457;BME280;9867;48.094;11.478;2023-06-10T06:46:29;94924.91;;;19.20;100.00
19457;BME280;9867;48.094;11.478;2023-06-10T06:48:57;94930.41;;;19.29;100.00
19457;BME280;9867;48.094;11.478;2023-06-10T06:51:25;94924.66;;;19.27;100.00
19457;BME280;9867;48.094;11.478;2023-06-10T06:53:54;94932.94;;;19.14;100.00
19457;BME280;9867;48.094;11.478;2023-06-10T06:56:26;94926.69;;;19.10;100.00
19457;BME280;9867;48.094;11.478;2023-06-10T06:58:54;94927.22;;;19.06;100.00
19457;BME280;9867;48.094;11.478;2023-06-10T07:01:24;94933.50;;;19.21;100.00
19457;BME280;9867;48.094;11.478;2023-06-10T07:03:52;94931.41;;;19.23;100.00
19457;BME280;9867;48.094;11.478;2023-06-10T07:06:19;94938.91;;;19.04;100.00
19457;BME280;9867;48.094;11.478;2023-06-10T07:08:49;94939.53;;;19.41;100.00
19457;BME280;9867;48.094;11.478;2023-06-10T07:11:17;94931.28;;;19.65;100.00
19457;BME280;9867;48.094;11.478;2023-06-10T07:13:47;94936.28;;;19.92;100.00
19457;BME280;9867;48.094;11.478;2023-06-10T07:16:15;94932.91;;;20.01;100.00
19457;BME280;9867;48.094;11.478;2023-06-10T07:18:42;94936.28;;;20.22;100.00
19457;BME280;9867;48.094;11.478;2023-06-10T07:21:11;94937.09;;;20.38;100.00
19457;BME280;9867;48.094;11.478;2023-06-10T07:23:41;94938.66;;;20.44;100.00
19457;BME280;9867;48.094;11.478;2023-06-10T07:26:09;94933.97;;;20.46;100.00
19457;BME280;9867;48.094;11.478;2023-06-10T07:28:39;94935.00;;;20.50;100.00
19457;BME280;9867;48.094;11.478;2023-06-10T07:31:08;94947.25;;;20.50;100.00
19457;BME280;9867;48.094;11.478;2023-06-10T07:33:38;94936.25;;;20.58;100.00
19457;BME280;9867;48.094;11.478;2023-06-10T07:36:07;94948.25;;;20.69;100.00
19457;BME280;9867;48.094;11.478;2023-06-10T07:38:35;94943.84;;;20.44;100.00
19457;BME280;9867;48.094;11.478;2023-06-10T07:41:02;94938.38;;;20.51;100.00
19457;BME280;9867;48.094;11.478;2023-06-10T07:43:31;94946.94;;;20.56;100.00
19457;BME280;9867;48.094;11.478;2023-06-10T07:45:59;94942.00;;;20.75;100.00
19457;BME280;9867;48.094;11.478;2023-06-10T07:48:28;94936.00;;;20.64;100.00
19457;BME280;9867;48.094;11.478;2023-06-10T07:50:56;94939.13;;;20.61;100.00
19457;BME280;9867;48.094;11.478;2023-06-10T07:53:24;94933.13;;;20.71;100.00
19457;BME280;9867;48.094;11.478;2023-06-10T07:55:52;94934.97;;;20.70;100.00
19457;BME280;9867;48.094;11.478;2023-06-10T07:58:20;94933.88;;;20.82;100.00
19457;BME280;9867;48.094;11.478;2023-06-10T08:00:48;94940.38;;;20.84;100.00
19457;BME280;9867;48.094;11.478;2023-06-10T08:03:16;94932.03;;;20.92;100.00
19457;BME280;9867;48.094;11.478;2023-06-10T08:05:45;94939.84;;;20.97;100.00
19457;BME280;9867;48.094;11.478;2023-06-10T08:08:13;94933.25;;;21.15;100.00
19457;BME280;9867;48.094;11.478;2023-06-10T08:10:41;94933.25;;;21.20;100.00
19457;BME280;9867;48.094;11.478;2023-06-10T08:13:09;94931.63;;;21.34;100.00
19457;BME280;9867;48.094;11.478;2023-06-10T08:15:37;94938.22;;;21.22;100.00
19457;BME280;9867;48.094;11.478;2023-06-10T08:18:04;94936.97;;;21.58;100.00
19457;BME280;9867;48.094;11.478;2023-06-10T08:20:32;94935.00;;;21.79;100.00
19457;BME280;9867;48.094;11.478;2023-06-10T08:23:02;94929.78;;;21.79;100.00
19457;BME280;9867;48.094;11.478;2023-06-10T08:25:29;94929.34;;;21.72;100.00
19457;BME280;9867;48.094;11.478;2023-06-10T08:27:58;94933.31;;;21.98;100.00
19457;BME280;9867;48.094;11.478;2023-06-10T08:30:26;94937.94;;;22.17;100.00
19457;BME280;9867;48.094;11.478;2023-06-10T08:32:54;94944.44;;;22.19;100.00
19457;BME280;9867;48.094;11.478;2023-06-10T08:35:22;94935.91;;;22.37;100.00
19457;BME280;9867;48.094;11.478;2023-06-10T08:37:50;94944.53;;;22.38;100.00
19457;BME280;9867;48.094;11.478;2023-06-10T08:40:19;94934.38;;;21.97;100.00
19457;BME280;9867;48.094;11.478;2023-06-10T08:42:54;94938.41;;;21.35;100.00
19457;BME280;9867;48.094;11.478;2023-06-10T08:45:29;94929.47;;;21.47;100.00
19457;BME280;9867;48.094;11.478;2023-06-10T08:48:00;94936.88;;;21.73;100.00
19457;BME280;9867;48.094;11.478;2023-06-10T08:50:29;94936.19;;;21.97;100.00
19457;BME280;9867;48.094;11.478;2023-06-10T08:52:58;94937.47;;;22.04;100.00
19457;BME280;9867;48.094;11.478;2023-06-10T08:55:32;94930.47;;;22.34;100.00
19457;BME280;9867;48.094;11.478;2023-06-10T08:58:01;94933.25;;;22.42;100.00
19457;BME280;9867;48.094;11.478;2023-06-10T09:00:31;94933.25;;;22.42;100.00
19457;BME280;9867;48.094;11.478;2023-06-10T09:02:59;94931.38;;;22.72;100.00
19457;BME280;9867;48.094;11.478;2023-06-10T09:05:33;94929.91;;;22.66;100.00
19457;BME280;9867;48.094;11.478;2023-06-10T09:08:01;94925.22;;;22.34;100.00
19457;BME280;9867;48.094;11.478;2023-06-10T09:10:30;94932.25;;;22.38;100.00
19457;BME280;9867;48.094;11.478;2023-06-10T09:12:58;94928.47;;;22.50;100.00
19457;BME280;9867;48.094;11.478;2023-06-10T09:15:27;94932.22;;;22.43;100.00
19457;BME280;9867;48.094;11.478;2023-06-10T09:17:55;94936.09;;;22.99;100.00
19457;BME280;9867;48.094;11.478;2023-06-10T09:20:24;94931.28;;;23.72;100.00
19457;BME280;9867;48.094;11.478;2023-06-10T09:22:56;94935.53;;;23.26;100.00
19457;BME280;9867;48.094;11.478;2023-06-10T09:25:36;94929.19;;;23.51;100.00
19457;BME280;9867;48.094;11.478;2023-06-10T09:28:05;94931.41;;;23.62;100.00
19457;BME280;9867;48.094;11.478;2023-06-10T09:30:43;94935.53;;;23.68;100.00
19457;BME280;9867;48.094;11.478;2023-06-10T09:33:12;94935.22;;;24.07;100.00
19457;BME280;9867;48.094;11.478;2023-06-10T09:35:45;94935.75;;;24.42;100.00
19457;BME280;9867;48.094;11.478;2023-06-10T09:38:20;94932.16;;;24.19;100.00
19457;BME280;9867;48.094;11.478;2023-06-10T09:40:50;94940.06;;;23.63;100.00
19457;BME280;9867;48.094;11.478;2023-06-10T09:43:19;94925.72;;;24.11;100.00
19457;BME280;9867;48.094;11.478;2023-06-10T09:45:56;94933.84;;;23.77;100.00
19457;BME280;9867;48.094;11.478;2023-06-10T09:48:28;94930.03;;;23.46;100.00
19457;BME280;9867;48.094;11.478;2023-06-10T09:50:59;94936.31;;;23.69;100.00
19457;BME280;9867;48.094;11.478;2023-06-10T09:53:27;94936.38;;;24.34;100.00
19457;BME280;9867;48.094;11.478;2023-06-10T09:55:59;94934.13;;;24.60;100.00
19457;BME280;9867;48.094;11.478;2023-06-10T09:58:37;94934.84;;;25.06;99.20
19457;BME280;9867;48.094;11.478;2023-06-10T10:01:05;94936.75;;;24.60;100.00
19457;BME280;9867;48.094;11.478;2023-06-10T10:03:34;94931.47;;;24.32;100.00
19457;BME280;9867;48.094;11.478;2023-06-10T10:06:11;94928.53;;;24.94;97.08
19457;BME280;9867;48.094;11.478;2023-06-10T10:08:39;94936.59;;;25.38;89.78
19457;BME280;9867;48.094;11.478;2023-06-10T10:11:09;94913.69;;;25.66;80.31
19457;BME280;9867;48.094;11.478;2023-06-10T10:13:38;94933.69;;;25.76;75.23
19457;BME280;9867;48.094;11.478;2023-06-10T10:16:14;94930.97;;;25.81;77.21
19457;BME280;9867;48.094;11.478;2023-06-10T10:18:51;94934.19;;;26.00;81.27
19457;BME280;9867;48.094;11.478;2023-06-10T10:21:22;94933.97;;;25.88;75.48
19457;BME280;9867;48.094;11.478;2023-06-10T10:23:53;94935.00;;;26.45;76.01
19457;BME280;9867;48.094;11.478;2023-06-10T10:26:27;94938.66;;;26.36;64.61
19457;BME280;9867;48.094;11.478;2023-06-10T10:29:05;94942.75;;;25.83;66.21
19457;BME280;9867;48.094;11.478;2023-06-10T10:31:36;94933.56;;;25.31;71.91
19457;BME280;9867;48.094;11.478;2023-06-10T10:34:08;94937.16;;;24.80;77.96
19457;BME280;9867;48.094;11.478;2023-06-10T10:36:39;94935.00;;;24.82;74.76
19457;BME280;9867;48.094;11.478;2023-06-10T10:39:08;94929.63;;;25.20;72.86
19457;BME280;9867;48.094;11.478;2023-06-10T10:41:39;94929.66;;;25.70;74.77
19457;BME280;9867;48.094;11.478;2023-06-10T10:44:07;94931.13;;;26.21;66.81
19457;BME280;9867;48.094;11.478;2023-06-10T10:46:42;94918.69;;;26.12;67.89
19457;BME280;9867;48.094;11.478;2023-06-10T10:49:12;94924.66;;;26.04;67.48
19457;BME280;9867;48.094;11.478;2023-06-10T10:51:55;94926.00;;;26.24;69.66
19457;BME280;9867;48.094;11.478;2023-06-10T10:54:31;94917.63;;;26.36;73.04
19457;BME280;9867;48.094;11.478;2023-06-10T10:57:18;94924.13;;;25.44;72.39
19457;BME280;9867;48.094;11.478;2023-06-10T10:59:52;94919.09;;;24.79;77.56
19457;BME280;9867;48.094;11.478;2023-06-10T11:02:37;94915.78;;;25.42;71.41
19457;BME280;9867;48.094;11.478;2023-06-10T11:05:11;94916.66;;;26.09;68.62
19457;BME280;9867;48.094;11.478;2023-06-10T11:07:40;94924.94;;;26.78;63.30
19457;BME280;9867;48.094;11.478;2023-06-10T11:10:09;94920.50;;;26.88;55.79
19457;BME280;9867;48.094;11.478;2023-06-10T11:12:49;94920.28;;;27.06;57.51
19457;BME280;9867;48.094;11.478;2023-06-10T11:15:19;94922.38;;;26.56;61.63
19457;BME280;9867;48.094;11.478;2023-06-10T11:18:09;94916.19;;;27.40;59.13
19457;BME280;9867;48.094;11.478;2023-06-10T11:20:58;94919.94;;;26.99;57.57
19457;BME280;9867;48.094;11.478;2023-06-10T11:23:41;94920.31;;;27.24;59.41
19457;BME280;9867;48.094;11.478;2023-06-10T11:26:21;94920.63;;;27.22;64.00
19457;BME280;9867;48.094;11.478;2023-06-10T11:29:09;94923.31;;;27.48;57.87
19457;BME280;9867;48.094;11.478;2023-06-10T11:31:42;94924.28;;;27.69;58.33
19457;BME280;9867;48.094;11.478;2023-06-10T11:34:15;94915.72;;;27.38;55.22
19457;BME280;9867;48.094;11.478;2023-06-10T11:36:50;94916.56;;;27.07;61.32
19457;BME280;9867;48.094;11.478;2023-06-10T11:39:20;94911.59;;;27.63;56.44
19457;BME280;9867;48.094;11.478;2023-06-10T11:41:50;94911.25;;;27.64;55.74
19457;BME280;9867;48.094;11.478;2023-06-10T11:44:27;94914.22;;;27.71;56.89
19457;BME280;9867;48.094;11.478;2023-06-10T11:46:56;94911.31;;;26.76;57.31
19457;BME280;9867;48.094;11.478;2023-06-10T11:49:24;94914.97;;;26.13;59.86
19457;BME280;9867;48.094;11.478;2023-06-10T11:51:58;94908.28;;;25.35;65.33
19457;BME280;9867;48.094;11.478;2023-06-10T11:54:27;94903.56;;;25.24;69.68
19457;BME280;9867;48.094;11.478;2023-06-10T11:56:57;94908.22;;;25.99;69.71
19457;BME280;9867;48.094;11.478;2023-06-10T11:59:28;94894.00;;;26.53;65.25
19457;BME280;9867;48.094;11.478;2023-06-10T12:01:56;94898.25;;;26.32;66.16
19457;BME280;9867;48.094;11.478;2023-06-10T12:04:25;94903.19;;;25.66;66.16
19457;BME280;9867;48.094;11.478;2023-06-10T12:06:53;94902.28;;;25.21;70.86
19457;BME280;9867;48.094;11.478;2023-06-10T12:09:23;94903.28;;;24.38;79.19
19457;BME280;9867;48.094;11.478;2023-06-10T12:11:57;94898.84;;;24.20;89.29
19457;BME280;9867;48.094;11.478;2023-06-10T12:14:53;94906.00;;;24.14;85.99
19457;BME280;9867;48.094;11.478;2023-06-10T12:17:23;94903.06;;;24.02;88.58
19457;BME280;9867;48.094;11.478;2023-06-10T12:19:51;94897.84;;;24.15;85.64
19457;BME280;9867;48.094;11.478;2023-06-10T12:22:19;94894.78;;;24.87;75.78
19457;BME280;9867;48.094;11.478;2023-06-10T12:24:58;94893.31;;;24.67;70.38
19457;BME280;9867;48.094;11.478;2023-06-10T12:27:28;94891.56;;;24.90;69.52
19457;BME280;9867;48.094;11.478;2023-06-10T12:29:58;94891.28;;;25.05;67.65
19457;BME280;9867;48.094;11.478;2023-06-10T12:32:38;94892.69;;;25.03;62.79
19457;BME280;9867;48.094;11.478;2023-06-10T12:35:07;94883.81;;;25.12;64.37
19457;BME280;9867;48.094;11.478;2023-06-10T12:37:36;94882.06;;;25.71;63.72
19457;BME280;9867;48.094;11.478;2023-06-10T12:40:09;94889.69;;;26.04;62.45
19457;BME280;9867;48.094;11.478;2023-06-10T12:42:38;94885.09;;;26.09;62.12
19457;BME280;9867;48.094;11.478;2023-06-10T12:45:08;94893.00;;;26.63;62.53
19457;BME280;9867;48.094;11.478;2023-06-10T12:47:38;94879.53;;;26.73;58.46
19457;BME280;9867;48.094;11.478;2023-06-10T12:50:07;94884.59;;;26.07;61.85
19457;BME280;9867;48.094;11.478;2023-06-10T12:52:35;94877.72;;;25.75;61.13
19457;BME280;9867;48.094;11.478;2023-06-10T12:55:04;94874.53;;;26.54;59.32
19457;BME280;9867;48.094;11.478;2023-06-10T12:57:33;94866.31;;;26.95;55.54
19457;BME280;9867;48.094;11.478;2023-06-10T13:00:00;94876.84;;;27.61;54.61
19457;BME280;9867;48.094;11.478;2023-06-10T13:02:32;94863.13;;;28.19;51.63
19457;BME280;9867;48.094;11.478;2023-06-10T13:05:01;94865.53;;;28.50;49.40
19457;BME280;9867;48.094;11.478;2023-06-10T13:07:30;94862.78;;;28.84;49.04